createdAt,value
2018-08-28T00:01:23.991Z,14.85
2018-08-28T00:03:53.171Z,14.83
2018-08-28T00:06:21.870Z,14.81
2018-08-28T00:08:50.539Z,14.78
2018-08-28T00:11:19.061Z,14.75
2018-08-28T00:13:47.608Z,14.73
2018-08-28T00:16:16.215Z,14.72
2018-08-28T00:18:44.623Z,14.70
2018-08-28T00:21:13.030Z,14.68
2018-08-28T00:23:41.737Z,14.67
2018-08-28T00:26:10.341Z,14.65
2018-08-28T00:28:38.710Z,14.66
2018-08-28T00:31:07.110Z,14.66
2018-08-28T00:33:35.522Z,14.66
2018-08-28T00:36:03.924Z,14.64
2018-08-28T00:38:32.305Z,14.66
2018-08-28T00:41:00.924Z,14.65
2018-08-28T00:43:29.332Z,14.66
2018-08-28T00:45:57.761Z,14.67
2018-08-28T00:48:26.139Z,14.69
2018-08-28T00:50:54.519Z,14.70
2018-08-28T00:53:22.942Z,14.69
2018-08-28T00:55:51.366Z,14.68
2018-08-28T00:58:19.773Z,14.68
2018-08-28T01:00:48.155Z,14.67
2018-08-28T01:03:16.555Z,14.66
2018-08-28T01:05:44.931Z,14.66
2018-08-28T01:08:13.343Z,14.65
2018-08-28T01:10:41.723Z,14.64
2018-08-28T01:13:10.137Z,14.64
2018-08-28T01:15:38.623Z,14.63
2018-08-28T01:18:07.444Z,14.63
2018-08-28T01:20:35.836Z,14.63
2018-08-28T01:23:04.284Z,14.62
2018-08-28T01:25:32.667Z,14.61
2018-08-28T01:28:01.068Z,14.60
2018-08-28T01:30:34.543Z,14.60
2018-08-28T01:33:04.878Z,14.58
2018-08-28T01:35:33.272Z,14.57
2018-08-28T01:38:01.672Z,14.56
2018-08-28T01:40:30.411Z,14.55
2018-08-28T01:42:59.726Z,14.54
2018-08-28T01:45:28.126Z,14.51
2018-08-28T01:47:56.515Z,14.50
2018-08-28T01:50:24.929Z,14.50
2018-08-28T01:52:53.314Z,14.46
2018-08-28T01:55:21.684Z,14.44
2018-08-28T01:57:50.075Z,14.43
2018-08-28T02:00:18.444Z,14.40
2018-08-28T02:02:46.834Z,14.38
2018-08-28T02:05:15.210Z,14.37
2018-08-28T02:07:43.607Z,14.34
2018-08-28T02:10:11.966Z,14.32
2018-08-28T02:12:40.363Z,14.31
2018-08-28T02:15:08.726Z,14.29
2018-08-28T02:17:37.114Z,14.28
2018-08-28T02:20:05.524Z,14.26
2018-08-28T02:22:33.914Z,14.24
2018-08-28T02:25:02.282Z,14.22
2018-08-28T02:27:30.670Z,14.19
2018-08-28T02:29:59.042Z,14.18
2018-08-28T02:32:27.435Z,14.15
2018-08-28T02:34:55.978Z,14.14
2018-08-28T02:37:24.366Z,14.13
2018-08-28T02:39:52.942Z,14.10
2018-08-28T02:42:21.335Z,14.09
2018-08-28T02:44:49.722Z,14.08
2018-08-28T02:47:18.140Z,14.06
2018-08-28T02:49:46.515Z,14.05
2018-08-28T02:52:14.913Z,14.03
2018-08-28T02:54:43.287Z,14.03
2018-08-28T02:57:11.655Z,14.02
2018-08-28T02:59:40.042Z,14.01
2018-08-28T03:02:08.412Z,14.01
2018-08-28T03:04:36.806Z,14.00
2018-08-28T03:07:05.174Z,13.98
2018-08-28T03:09:33.577Z,13.98
2018-08-28T03:12:01.950Z,13.98
2018-08-28T03:14:30.364Z,13.98
2018-08-28T03:16:58.730Z,13.98
2018-08-28T03:19:27.142Z,13.98
2018-08-28T03:21:55.522Z,13.96
2018-08-28T03:24:23.910Z,13.96
2018-08-28T03:26:52.287Z,13.94
2018-08-28T03:29:20.690Z,13.94
2018-08-28T03:31:49.082Z,13.92
2018-08-28T03:34:17.654Z,13.91
2018-08-28T03:36:46.023Z,13.92
2018-08-28T03:39:14.443Z,13.91
2018-08-28T03:41:42.815Z,13.91
2018-08-28T03:44:11.211Z,13.88
2018-08-28T03:46:39.591Z,13.89
2018-08-28T03:49:07.979Z,13.87
2018-08-28T03:51:36.379Z,13.86
2018-08-28T03:54:04.766Z,13.85
2018-08-28T03:56:33.143Z,13.86
2018-08-28T03:59:01.539Z,13.86
2018-08-28T04:01:29.911Z,13.86
2018-08-28T04:03:58.310Z,13.87
2018-08-28T04:06:26.686Z,13.89
2018-08-28T04:08:55.079Z,13.91
2018-08-28T04:11:23.474Z,13.93
2018-08-28T04:13:51.865Z,13.96
2018-08-28T04:16:20.235Z,13.98
2018-08-28T04:18:48.657Z,14.02
2018-08-28T04:21:17.062Z,14.06
2018-08-28T04:23:45.459Z,14.09
2018-08-28T04:26:13.842Z,14.14
2018-08-28T04:28:42.242Z,14.18
2018-08-28T04:31:10.739Z,14.24
2018-08-28T04:33:39.134Z,14.29
2018-08-28T04:36:07.506Z,14.34
2018-08-28T04:38:35.898Z,14.40
2018-08-28T04:41:04.270Z,14.46
2018-08-28T04:43:32.659Z,14.52
2018-08-28T04:46:01.037Z,14.56
2018-08-28T04:48:29.456Z,14.61
2018-08-28T04:50:57.834Z,14.65
2018-08-28T04:53:26.255Z,14.68
2018-08-28T04:55:54.622Z,14.73
2018-08-28T04:58:22.994Z,14.76
2018-08-28T05:00:51.435Z,14.81
2018-08-28T05:03:19.790Z,14.82
2018-08-28T05:05:48.189Z,14.86
2018-08-28T05:08:16.550Z,14.89
2018-08-28T05:10:44.942Z,14.91
2018-08-28T05:13:13.331Z,14.97
2018-08-28T05:15:41.726Z,14.99
2018-08-28T05:18:10.118Z,15.03
2018-08-28T05:20:38.514Z,15.06
2018-08-28T05:23:06.888Z,15.08
2018-08-28T05:25:35.282Z,15.10
2018-08-28T05:28:03.667Z,15.12
2018-08-28T05:30:32.111Z,15.18
2018-08-28T05:33:00.478Z,15.21
2018-08-28T05:35:28.875Z,15.25
2018-08-28T05:37:57.300Z,15.29
2018-08-28T05:40:25.791Z,15.37
2018-08-28T05:42:54.176Z,15.40
2018-08-28T05:45:22.583Z,15.45
2018-08-28T05:47:50.950Z,15.51
2018-08-28T05:50:19.347Z,15.53
2018-08-28T05:52:47.728Z,15.56
2018-08-28T05:55:16.127Z,15.60
2018-08-28T05:57:44.511Z,15.63
2018-08-28T06:00:12.918Z,15.66
2018-08-28T06:02:41.287Z,15.67
2018-08-28T06:05:10.017Z,15.72
2018-08-28T06:07:38.382Z,15.74
2018-08-28T06:10:06.795Z,15.79
2018-08-28T06:12:35.315Z,15.82
2018-08-28T06:15:03.734Z,15.87
2018-08-28T06:17:32.107Z,15.93
2018-08-28T06:20:00.527Z,15.98
2018-08-28T06:22:28.899Z,16.04
2018-08-28T06:24:58.051Z,16.12
2018-08-28T06:27:26.615Z,16.16
2018-08-28T06:29:55.010Z,16.24
2018-08-28T06:32:23.395Z,16.29
2018-08-28T06:34:51.791Z,16.35
2018-08-28T06:37:20.440Z,16.39
2018-08-28T06:39:48.766Z,16.45
2018-08-28T06:42:17.142Z,16.52
2018-08-28T06:44:45.544Z,16.60
2018-08-28T06:47:13.919Z,16.66
2018-08-28T06:49:42.380Z,16.72
2018-08-28T06:52:10.706Z,16.80
2018-08-28T06:54:39.139Z,16.88
2018-08-28T06:57:07.526Z,16.94
2018-08-28T06:59:35.899Z,17.02
2018-08-28T07:02:04.303Z,17.08
2018-08-28T07:04:32.799Z,17.13
2018-08-28T07:07:01.194Z,17.19
2018-08-28T07:09:29.675Z,17.25
2018-08-28T07:11:58.075Z,17.31
2018-08-28T07:14:26.455Z,17.36
2018-08-28T07:16:54.838Z,17.42
2018-08-28T07:19:23.512Z,17.50
2018-08-28T07:21:51.908Z,17.57
2018-08-28T07:24:20.279Z,17.65
2018-08-28T07:26:48.678Z,17.73
2018-08-28T07:29:17.053Z,17.81
2018-08-28T07:31:45.561Z,17.86
2018-08-28T07:34:13.862Z,17.92
2018-08-28T07:36:42.262Z,17.99
2018-08-28T07:39:10.634Z,18.06
2018-08-28T07:41:39.044Z,18.12
2018-08-28T07:44:07.426Z,18.19
2018-08-28T07:46:35.823Z,18.27
2018-08-28T07:49:04.191Z,18.34
2018-08-28T07:51:32.604Z,18.44
2018-08-28T07:54:01.008Z,18.54
2018-08-28T07:56:29.398Z,18.62
2018-08-28T07:58:57.770Z,18.70
2018-08-28T08:01:26.228Z,18.75
2018-08-28T08:03:54.572Z,18.82
2018-08-28T08:06:22.976Z,18.89
2018-08-28T08:08:51.348Z,18.96
2018-08-28T08:11:19.746Z,19.07
2018-08-28T08:13:48.119Z,19.18
2018-08-28T08:16:16.717Z,19.26
2018-08-28T08:18:45.064Z,19.36
2018-08-28T08:21:13.481Z,19.47
2018-08-28T08:23:41.847Z,19.56
2018-08-28T08:26:10.249Z,19.62
2018-08-28T08:28:38.623Z,19.70
2018-08-28T08:31:07.259Z,19.71
2018-08-28T08:33:35.635Z,19.69
2018-08-28T08:36:04.034Z,19.68
2018-08-28T08:38:32.406Z,19.69
2018-08-28T08:41:00.802Z,19.75
2018-08-28T08:43:29.178Z,19.84
2018-08-28T08:45:57.570Z,19.92
2018-08-28T08:48:25.947Z,20.00
2018-08-28T08:50:54.355Z,20.01
2018-08-28T08:53:22.723Z,20.08
2018-08-28T08:55:51.207Z,20.14
2018-08-28T08:58:19.622Z,20.23
2018-08-28T09:00:47.990Z,20.31
2018-08-28T09:03:16.387Z,20.36
2018-08-28T09:05:44.754Z,20.41
2018-08-28T09:08:13.146Z,20.44
2018-08-28T09:10:41.542Z,20.45
2018-08-28T09:13:09.965Z,20.44
2018-08-28T09:15:38.338Z,20.46
2018-08-28T09:18:06.795Z,20.47
2018-08-28T09:20:35.158Z,20.52
2018-08-28T09:23:03.551Z,20.57
2018-08-28T09:25:31.925Z,20.62
2018-08-28T09:28:00.314Z,20.74
2018-08-28T09:30:28.702Z,20.81
2018-08-28T09:32:57.102Z,20.86
2018-08-28T09:35:25.479Z,20.93
2018-08-28T09:37:53.868Z,20.98
2018-08-28T09:40:22.235Z,21.04
2018-08-28T09:42:50.631Z,21.11
2018-08-28T09:45:19.003Z,21.15
2018-08-28T09:47:47.406Z,21.21
2018-08-28T09:50:15.867Z,21.27
2018-08-28T09:52:44.218Z,21.26
2018-08-28T09:55:12.614Z,21.26
2018-08-28T09:57:41.097Z,21.31
2018-08-28T10:00:14.103Z,21.34
2018-08-28T10:02:42.924Z,21.32
2018-08-28T10:05:11.303Z,21.31
2018-08-28T10:07:39.699Z,21.29
2018-08-28T10:10:08.107Z,21.30
2018-08-28T10:12:36.507Z,21.34
2018-08-28T10:15:04.896Z,21.38
2018-08-28T10:17:33.368Z,21.41
2018-08-28T10:20:01.715Z,21.51
2018-08-28T10:22:30.104Z,21.52
2018-08-28T10:24:58.606Z,21.53
2018-08-28T10:27:27.014Z,21.56
2018-08-28T10:29:55.880Z,21.54
2018-08-28T10:32:24.191Z,21.56
2018-08-28T10:34:52.567Z,21.57
2018-08-28T10:37:20.962Z,21.54
2018-08-28T10:39:49.350Z,21.52
2018-08-28T10:42:17.747Z,21.49
2018-08-28T10:44:46.123Z,21.42
2018-08-28T10:47:14.518Z,21.41
2018-08-28T10:49:43.122Z,21.43
2018-08-28T10:52:11.548Z,21.41
2018-08-28T10:54:39.967Z,21.50
2018-08-28T10:57:08.335Z,21.56
2018-08-28T10:59:36.731Z,21.64
2018-08-28T11:02:05.107Z,21.73
2018-08-28T11:04:33.564Z,21.83
2018-08-28T11:07:01.906Z,21.92
2018-08-28T11:09:30.304Z,22.06
2018-08-28T11:11:58.725Z,22.20
2018-08-28T11:14:27.106Z,22.31
2018-08-28T11:16:55.479Z,22.42
2018-08-28T11:19:24.116Z,22.53
2018-08-28T11:21:52.504Z,22.60
2018-08-28T11:24:20.915Z,22.73
2018-08-28T11:26:49.296Z,22.85
2018-08-28T11:29:17.702Z,22.91
2018-08-28T11:31:46.066Z,22.96
2018-08-28T11:34:14.458Z,22.96
2018-08-28T11:36:42.819Z,23.02
2018-08-28T11:39:11.211Z,23.04
2018-08-28T11:41:39.607Z,23.00
2018-08-28T11:44:08.012Z,22.94
2018-08-28T11:46:36.386Z,22.90
2018-08-28T11:49:04.782Z,22.89
2018-08-28T11:51:33.154Z,22.91
2018-08-28T11:54:01.926Z,22.95
2018-08-28T11:56:30.515Z,22.97
2018-08-28T11:58:58.909Z,23.03
2018-08-28T12:01:27.287Z,23.07
2018-08-28T12:03:55.746Z,23.09
2018-08-28T12:06:24.175Z,23.08
2018-08-28T12:08:52.588Z,23.02
2018-08-28T12:11:20.974Z,22.94
2018-08-28T12:13:49.370Z,22.88
2018-08-28T12:16:17.803Z,22.81
2018-08-28T12:18:46.219Z,22.82
2018-08-28T12:21:14.592Z,22.83
2018-08-28T12:23:42.983Z,22.82
2018-08-28T12:26:11.359Z,22.81
2018-08-28T12:28:39.750Z,22.81
2018-08-28T12:31:08.112Z,22.82
2018-08-28T12:33:36.503Z,22.81
2018-08-28T12:36:04.898Z,22.84
2018-08-28T12:38:33.288Z,22.89
2018-08-28T12:41:01.654Z,22.96
2018-08-28T12:43:30.093Z,23.03
2018-08-28T12:45:58.464Z,23.08
2018-08-28T12:48:26.861Z,23.12
2018-08-28T12:50:55.234Z,23.19
2018-08-28T12:53:23.650Z,23.24
2018-08-28T12:55:52.018Z,23.24
2018-08-28T12:58:20.385Z,23.24
2018-08-28T13:00:48.885Z,23.23
2018-08-28T13:03:17.170Z,23.25
2018-08-28T13:05:45.566Z,23.24
2018-08-28T13:08:13.930Z,23.23
2018-08-28T13:10:42.330Z,23.23
2018-08-28T13:13:10.690Z,23.23
2018-08-28T13:15:39.083Z,23.20
2018-08-28T13:18:07.731Z,23.19
2018-08-28T13:20:36.130Z,23.25
2018-08-28T13:23:04.538Z,23.27
2018-08-28T13:25:32.954Z,23.33
2018-08-28T13:28:01.327Z,23.42
2018-08-28T13:30:29.723Z,23.49
2018-08-28T13:32:58.163Z,23.55
2018-08-28T13:35:26.559Z,23.63
2018-08-28T13:37:54.942Z,23.74
2018-08-28T13:40:23.377Z,23.84
2018-08-28T13:42:51.743Z,23.97
2018-08-28T13:45:20.130Z,24.06
2018-08-28T13:47:48.508Z,24.14
2018-08-28T13:50:16.898Z,24.22
2018-08-28T13:52:45.271Z,24.28
2018-08-28T13:55:13.668Z,24.28
2018-08-28T13:57:42.046Z,24.29
2018-08-28T14:00:10.534Z,24.30
2018-08-28T14:02:38.926Z,24.31
2018-08-28T14:05:07.314Z,24.35
2018-08-28T14:07:35.682Z,24.37
2018-08-28T14:10:04.114Z,24.35
2018-08-28T14:12:32.489Z,24.36
2018-08-28T14:15:00.889Z,24.35
2018-08-28T14:17:29.328Z,24.32
2018-08-28T14:19:57.754Z,24.27
2018-08-28T14:22:26.133Z,24.25
2018-08-28T14:24:54.546Z,24.24
2018-08-28T14:27:22.919Z,24.22
2018-08-28T14:29:51.320Z,24.20
2018-08-28T14:32:19.705Z,24.15
2018-08-28T14:34:48.095Z,24.10
2018-08-28T14:37:16.463Z,24.06
2018-08-28T14:39:44.851Z,24.04
2018-08-28T14:42:13.222Z,24.02
2018-08-28T14:44:41.615Z,24.02
2018-08-28T14:47:09.994Z,24.03
2018-08-28T14:49:38.442Z,24.05
2018-08-28T14:52:06.891Z,24.11
2018-08-28T14:54:35.262Z,24.12
2018-08-28T14:57:03.655Z,24.11
2018-08-28T14:59:32.050Z,24.09
2018-08-28T15:02:00.438Z,24.09
2018-08-28T15:04:28.830Z,24.08
2018-08-28T15:06:57.318Z,24.04
2018-08-28T15:09:25.623Z,24.03
2018-08-28T15:11:54.019Z,23.99
2018-08-28T15:14:22.394Z,23.98
2018-08-28T15:16:50.881Z,23.93
2018-08-28T15:19:19.220Z,23.91
2018-08-28T15:21:47.611Z,23.87
2018-08-28T15:24:15.983Z,23.83
2018-08-28T15:26:44.379Z,23.80
2018-08-28T15:29:12.747Z,23.74
2018-08-28T15:31:41.137Z,23.65
2018-08-28T15:34:09.740Z,23.59
2018-08-28T15:36:38.134Z,23.54
2018-08-28T15:39:07.294Z,23.52
2018-08-28T15:41:35.686Z,23.48
2018-08-28T15:44:04.058Z,23.49
2018-08-28T15:46:32.458Z,23.48
2018-08-28T15:49:00.958Z,23.48
2018-08-28T15:51:29.546Z,23.46
2018-08-28T15:53:57.762Z,23.45
2018-08-28T15:56:26.158Z,23.43
2018-08-28T15:58:54.642Z,23.41
2018-08-28T16:01:23.451Z,23.40
2018-08-28T16:03:51.820Z,23.36
2018-08-28T16:06:20.210Z,23.34
2018-08-28T16:08:48.590Z,23.31
2018-08-28T16:11:16.999Z,23.27
2018-08-28T16:13:45.375Z,23.23
2018-08-28T16:16:13.794Z,23.20
2018-08-28T16:18:42.181Z,23.17
2018-08-28T16:21:10.566Z,23.13
2018-08-28T16:23:42.417Z,23.09
2018-08-28T16:26:10.766Z,23.05
2018-08-28T16:28:39.130Z,23.00
2018-08-28T16:31:07.522Z,22.95
2018-08-28T16:33:35.897Z,22.91
2018-08-28T16:36:04.291Z,22.88
2018-08-28T16:38:32.662Z,22.82
2018-08-28T16:41:01.171Z,22.79
2018-08-28T16:43:29.454Z,22.75
2018-08-28T16:45:57.843Z,22.69
2018-08-28T16:48:26.321Z,22.63
2018-08-28T16:50:54.622Z,22.57
2018-08-28T16:53:22.990Z,22.52
2018-08-28T16:55:51.448Z,22.48
2018-08-28T16:58:19.803Z,22.44
2018-08-28T17:00:48.167Z,22.41
2018-08-28T17:03:16.623Z,22.38
2018-08-28T17:05:44.991Z,22.36
2018-08-28T17:08:13.386Z,22.32
2018-08-28T17:10:41.758Z,22.27
2018-08-28T17:13:10.202Z,22.24
2018-08-28T17:15:38.574Z,22.20
2018-08-28T17:18:07.074Z,22.17
2018-08-28T17:20:35.500Z,22.16
2018-08-28T17:23:04.032Z,22.13
2018-08-28T17:25:32.452Z,22.11
2018-08-28T17:28:00.846Z,22.09
2018-08-28T17:30:29.214Z,22.07
2018-08-28T17:32:57.606Z,22.05
2018-08-28T17:35:25.975Z,22.03
2018-08-28T17:37:54.401Z,21.99
2018-08-28T17:40:22.766Z,21.97
2018-08-28T17:42:51.163Z,21.93
2018-08-28T17:45:19.540Z,21.91
2018-08-28T17:47:47.930Z,21.90
2018-08-28T17:50:16.304Z,21.89
2018-08-28T17:52:44.698Z,21.87
2018-08-28T17:55:13.067Z,21.86
2018-08-28T17:57:41.466Z,21.85
2018-08-28T18:00:09.886Z,21.82
2018-08-28T18:02:38.274Z,21.79
2018-08-28T18:05:06.663Z,21.78
2018-08-28T18:07:35.078Z,21.75
2018-08-28T18:10:03.455Z,21.72
2018-08-28T18:12:31.854Z,21.70
2018-08-28T18:15:00.237Z,21.67
2018-08-28T18:17:28.622Z,21.64
2018-08-28T18:19:57.024Z,21.62
2018-08-28T18:22:25.446Z,21.59
2018-08-28T18:24:53.824Z,21.56
2018-08-28T18:27:22.210Z,21.53
2018-08-28T18:29:50.587Z,21.50
2018-08-28T18:32:18.987Z,21.45
2018-08-28T18:34:47.351Z,21.43
2018-08-28T18:37:15.738Z,21.39
2018-08-28T18:39:44.110Z,21.36
2018-08-28T18:42:12.662Z,21.34
2018-08-28T18:44:41.030Z,21.33
2018-08-28T18:47:09.419Z,21.30
2018-08-28T18:49:37.782Z,21.28
2018-08-28T18:52:06.199Z,21.27
2018-08-28T18:54:34.574Z,21.25
2018-08-28T18:57:02.949Z,21.24
2018-08-28T18:59:31.378Z,21.22
2018-08-28T19:01:59.751Z,21.20
2018-08-28T19:04:28.151Z,21.19
2018-08-28T19:06:56.510Z,21.18
2018-08-28T19:09:24.936Z,21.16
2018-08-28T19:11:53.318Z,21.15
2018-08-28T19:14:21.715Z,21.13
2018-08-28T19:16:50.080Z,21.12
2018-08-28T19:19:18.490Z,21.12
2018-08-28T19:21:46.850Z,21.11
2018-08-28T19:24:15.270Z,21.10
2018-08-28T19:26:43.667Z,21.07
2018-08-28T19:29:12.046Z,21.06
2018-08-28T19:31:40.471Z,21.05
2018-08-28T19:34:08.830Z,21.03
2018-08-28T19:36:37.191Z,21.01
2018-08-28T19:39:06.015Z,20.98
2018-08-28T19:41:34.378Z,20.95
2018-08-28T19:44:02.786Z,20.90
2018-08-28T19:46:31.167Z,20.86
2018-08-28T19:48:59.554Z,20.83
2018-08-28T19:51:28.034Z,20.81
2018-08-28T19:53:56.431Z,20.79
2018-08-28T19:56:25.067Z,20.76
2018-08-28T19:58:53.486Z,20.73
2018-08-28T20:01:21.954Z,20.68
2018-08-28T20:03:50.357Z,20.56
2018-08-28T20:06:18.738Z,20.61
2018-08-28T20:08:47.118Z,20.59
2018-08-28T20:11:15.512Z,20.57
2018-08-28T20:13:43.918Z,20.55
2018-08-28T20:16:12.300Z,20.53
2018-08-28T20:18:40.722Z,20.51
2018-08-28T20:21:09.095Z,20.49
2018-08-28T20:23:37.502Z,20.48
2018-08-28T20:26:05.894Z,20.45
2018-08-28T20:28:34.295Z,20.43
2018-08-28T20:31:02.811Z,20.41
2018-08-28T20:33:31.207Z,20.39
2018-08-28T20:35:59.586Z,20.35
2018-08-28T20:38:27.982Z,20.29
2018-08-28T20:40:56.358Z,20.27
2018-08-28T20:43:24.746Z,20.24
2018-08-28T20:45:53.110Z,20.22
2018-08-28T20:48:21.515Z,20.21
2018-08-28T20:50:49.882Z,20.19
2018-08-28T20:53:18.302Z,20.17
2018-08-28T20:55:46.674Z,20.14
2018-08-28T20:58:15.060Z,20.09
2018-08-28T21:00:43.450Z,20.05
2018-08-28T21:03:11.814Z,20.00
2018-08-28T21:05:40.203Z,19.98
2018-08-28T21:08:10.259Z,19.94
2018-08-28T21:10:38.646Z,19.91
2018-08-28T21:13:07.053Z,19.88
2018-08-28T21:15:35.439Z,19.88
2018-08-28T21:18:03.830Z,19.85
2018-08-28T21:20:32.227Z,19.84
2018-08-28T21:23:00.661Z,19.85
2018-08-28T21:25:29.018Z,19.84
2018-08-28T21:27:57.390Z,19.82
2018-08-28T21:30:25.795Z,19.78
2018-08-28T21:32:54.254Z,19.74
2018-08-28T21:35:22.649Z,19.71
2018-08-28T21:37:51.023Z,19.68
2018-08-28T21:40:19.414Z,19.64
2018-08-28T21:42:47.782Z,19.63
2018-08-28T21:45:16.171Z,19.60
2018-08-28T21:47:44.544Z,19.56
2018-08-28T21:50:12.935Z,19.50
2018-08-28T21:52:41.310Z,19.43
2018-08-28T21:55:09.706Z,19.36
2018-08-28T21:57:38.119Z,19.33
2018-08-28T22:00:06.851Z,19.30
2018-08-28T22:02:35.227Z,19.28
2018-08-28T22:05:03.628Z,19.28
2018-08-28T22:07:37.322Z,19.29
2018-08-28T22:10:05.739Z,19.27
2018-08-28T22:12:34.251Z,19.25
2018-08-28T22:15:02.643Z,19.21
2018-08-28T22:17:31.198Z,19.19
2018-08-28T22:19:59.826Z,19.18
2018-08-28T22:22:28.209Z,19.16
2018-08-28T22:24:56.608Z,19.15
2018-08-28T22:27:24.977Z,19.14
2018-08-28T22:29:53.362Z,19.12
2018-08-28T22:32:21.725Z,19.12
2018-08-28T22:34:50.118Z,19.11
2018-08-28T22:37:18.485Z,19.09
2018-08-28T22:39:46.877Z,19.07
2018-08-28T22:42:15.246Z,19.05
2018-08-28T22:44:43.649Z,19.02
2018-08-28T22:47:12.034Z,19.00
2018-08-28T22:49:40.422Z,18.96
2018-08-28T22:52:08.794Z,18.95
2018-08-28T22:54:37.214Z,18.91
2018-08-28T22:57:05.666Z,18.85
2018-08-28T22:59:34.038Z,18.78
2018-08-28T23:02:02.426Z,18.73
2018-08-28T23:04:30.802Z,18.66
2018-08-28T23:06:59.193Z,18.57
2018-08-28T23:09:27.565Z,18.50
2018-08-28T23:11:55.953Z,18.44
2018-08-28T23:14:24.333Z,18.38
2018-08-28T23:16:52.726Z,18.32
2018-08-28T23:19:21.114Z,18.25
2018-08-28T23:21:49.606Z,18.18
2018-08-28T23:24:17.974Z,18.10
2018-08-28T23:26:46.366Z,18.03
2018-08-28T23:29:14.738Z,17.96
2018-08-28T23:31:43.126Z,17.90
2018-08-28T23:34:11.495Z,17.82
2018-08-28T23:36:39.898Z,17.75
2018-08-28T23:39:08.642Z,17.67
2018-08-28T23:41:37.061Z,17.60
2018-08-28T23:44:05.490Z,17.54
2018-08-28T23:46:34.013Z,17.49
2018-08-28T23:49:02.393Z,17.44
2018-08-28T23:51:30.781Z,17.39
2018-08-28T23:53:59.329Z,17.34
2018-08-28T23:56:27.750Z,17.31
2018-08-28T23:58:56.122Z,17.29
